sensor_id;sensor_type;location;lat;lon;timestamp;P1;durP1;ratioP1;P2;durP2;ratioP2
5704;SDS011;2877;48.238;11.160;2024-03-17T00:02:05;2.83;;;2.63;;
5704;SDS011;2877;48.238;11.160;2024-03-17T00:04:31;3.00;;;2.30;;
5704;SDS011;2877;48.238;11.160;2024-03-17T00:06:56;2.50;;;2.30;;
5704;SDS011;2877;48.238;11.160;2024-03-17T00:09:22;2.80;;;2.47;;
5704;SDS011;2877;48.238;11.160;2024-03-17T00:11:49;2.67;;;2.27;;
5704;SDS011;2877;48.238;11.160;2024-03-17T00:14:14;2.67;;;2.30;;
5704;SDS011;2877;48.238;11.160;2024-03-17T00:16:41;2.50;;;2.27;;
5704;SDS011;2877;48.238;11.160;2024-03-17T00:19:06;2.67;;;2.10;;
5704;SDS011;2877;48.238;11.160;2024-03-17T00:21:32;2.60;;;2.40;;
5704;SDS011;2877;48.238;11.160;2024-03-17T00:23:57;3.30;;;2.23;;
5704;SDS011;2877;48.238;11.160;2024-03-17T00:26:23;2.17;;;2.07;;
5704;SDS011;2877;48.238;11.160;2024-03-17T00:28:49;2.60;;;2.40;;
5704;SDS011;2877;48.238;11.160;2024-03-17T00:31:16;2.43;;;2.23;;
5704;SDS011;2877;48.238;11.160;2024-03-17T00:33:42;2.67;;;2.47;;
5704;SDS011;2877;48.238;11.160;2024-03-17T00:36:07;2.27;;;2.07;;
5704;SDS011;2877;48.238;11.160;2024-03-17T00:38:33;2.00;;;1.80;;
5704;SDS011;2877;48.238;11.160;2024-03-17T00:40:59;3.83;;;2.53;;
5704;SDS011;2877;48.238;11.160;2024-03-17T00:43:27;3.37;;;2.70;;
5704;SDS011;2877;48.238;11.160;2024-03-17T00:45:52;3.77;;;3.00;;
5704;SDS011;2877;48.238;11.160;2024-03-17T00:48:18;3.23;;;2.60;;
5704;SDS011;2877;48.238;11.160;2024-03-17T00:50:44;2.90;;;2.60;;
5704;SDS011;2877;48.238;11.160;2024-03-17T00:53:10;2.20;;;2.00;;
5704;SDS011;2877;48.238;11.160;2024-03-17T00:55:39;3.83;;;2.10;;
5704;SDS011;2877;48.238;11.160;2024-03-17T00:58:04;2.60;;;2.40;;
5704;SDS011;2877;48.238;11.160;2024-03-17T01:00:31;3.70;;;2.37;;
5704;SDS011;2877;48.238;11.160;2024-03-17T01:02:58;2.43;;;2.23;;
5704;SDS011;2877;48.238;11.160;2024-03-17T01:05:23;2.70;;;2.50;;
5704;SDS011;2877;48.238;11.160;2024-03-17T01:07:49;3.10;;;2.30;;
5704;SDS011;2877;48.238;11.160;2024-03-17T01:10:14;3.47;;;2.57;;
5704;SDS011;2877;48.238;11.160;2024-03-17T01:12:40;3.03;;;2.83;;
5704;SDS011;2877;48.238;11.160;2024-03-17T01:15:06;5.80;;;2.80;;
5704;SDS011;2877;48.238;11.160;2024-03-17T01:17:33;3.43;;;2.70;;
5704;SDS011;2877;48.238;11.160;2024-03-17T01:19:58;3.20;;;3.00;;
5704;SDS011;2877;48.238;11.160;2024-03-17T01:22:24;2.93;;;2.50;;
5704;SDS011;2877;48.238;11.160;2024-03-17T01:24:50;2.40;;;2.20;;
5704;SDS011;2877;48.238;11.160;2024-03-17T01:27:15;2.73;;;2.53;;
5704;SDS011;2877;48.238;11.160;2024-03-17T01:29:41;2.37;;;2.20;;
5704;SDS011;2877;48.238;11.160;2024-03-17T01:32:10;2.50;;;2.30;;
5704;SDS011;2877;48.238;11.160;2024-03-17T01:34:36;1.90;;;1.80;;
5704;SDS011;2877;48.238;11.160;2024-03-17T01:37:02;3.30;;;2.03;;
5704;SDS011;2877;48.238;11.160;2024-03-17T01:39:27;2.97;;;2.03;;
5704;SDS011;2877;48.238;11.160;2024-03-17T01:41:53;3.00;;;2.80;;
5704;SDS011;2877;48.238;11.160;2024-03-17T01:44:22;2.27;;;2.10;;
5704;SDS011;2877;48.238;11.160;2024-03-17T01:46:50;2.63;;;2.43;;
5704;SDS011;2877;48.238;11.160;2024-03-17T01:49:16;2.13;;;1.93;;
5704;SDS011;2877;48.238;11.160;2024-03-17T01:51:43;2.10;;;1.90;;
5704;SDS011;2877;48.238;11.160;2024-03-17T01:54:11;3.20;;;2.50;;
5704;SDS011;2877;48.238;11.160;2024-03-17T01:56:38;2.93;;;2.40;;
5704;SDS011;2877;48.238;11.160;2024-03-17T01:59:04;2.10;;;2.00;;
5704;SDS011;2877;48.238;11.160;2024-03-17T02:01:31;2.83;;;2.53;;
5704;SDS011;2877;48.238;11.160;2024-03-17T02:03:56;3.63;;;2.07;;
5704;SDS011;2877;48.238;11.160;2024-03-17T02:06:23;2.50;;;2.30;;
5704;SDS011;2877;48.238;11.160;2024-03-17T02:08:53;4.70;;;2.50;;
5704;SDS011;2877;48.238;11.160;2024-03-17T02:11:26;2.50;;;2.30;;
5704;SDS011;2877;48.238;11.160;2024-03-17T02:13:54;2.40;;;2.20;;
5704;SDS011;2877;48.238;11.160;2024-03-17T02:16:20;3.60;;;2.30;;
5704;SDS011;2877;48.238;11.160;2024-03-17T02:18:46;3.40;;;2.73;;
5704;SDS011;2877;48.238;11.160;2024-03-17T02:21:12;2.73;;;2.53;;
5704;SDS011;2877;48.238;11.160;2024-03-17T02:23:39;2.90;;;2.70;;
5704;SDS011;2877;48.238;11.160;2024-03-17T02:26:04;2.70;;;2.50;;
5704;SDS011;2877;48.238;11.160;2024-03-17T02:28:37;2.50;;;2.30;;
5704;SDS011;2877;48.238;11.160;2024-03-17T02:31:04;3.43;;;3.10;;
5704;SDS011;2877;48.238;11.160;2024-03-17T02:33:31;3.10;;;2.80;;
5704;SDS011;2877;48.238;11.160;2024-03-17T02:35:57;2.73;;;2.53;;
5704;SDS011;2877;48.238;11.160;2024-03-17T02:38:22;3.57;;;3.23;;
5704;SDS011;2877;48.238;11.160;2024-03-17T02:41:07;3.63;;;3.00;;
5704;SDS011;2877;48.238;11.160;2024-03-17T02:43:32;2.90;;;2.70;;
5704;SDS011;2877;48.238;11.160;2024-03-17T02:45:58;3.80;;;3.40;;
5704;SDS011;2877;48.238;11.160;2024-03-17T02:48:23;2.90;;;2.70;;
5704;SDS011;2877;48.238;11.160;2024-03-17T02:50:50;3.00;;;2.70;;
5704;SDS011;2877;48.238;11.160;2024-03-17T02:53:15;3.17;;;2.90;;
5704;SDS011;2877;48.238;11.160;2024-03-17T02:55:42;2.60;;;2.40;;
5704;SDS011;2877;48.238;11.160;2024-03-17T02:58:07;3.77;;;2.63;;
5704;SDS011;2877;48.238;11.160;2024-03-17T03:00:33;2.90;;;2.70;;
5704;SDS011;2877;48.238;11.160;2024-03-17T03:03:00;3.60;;;2.70;;
5704;SDS011;2877;48.238;11.160;2024-03-17T03:05:25;3.83;;;2.90;;
5704;SDS011;2877;48.238;11.160;2024-03-17T03:07:51;2.43;;;2.23;;
5704;SDS011;2877;48.238;11.160;2024-03-17T03:10:17;2.70;;;2.50;;
5704;SDS011;2877;48.238;11.160;2024-03-17T03:12:42;2.53;;;2.33;;
5704;SDS011;2877;48.238;11.160;2024-03-17T03:15:08;2.57;;;2.40;;
5704;SDS011;2877;48.238;11.160;2024-03-17T03:17:34;2.63;;;2.43;;
5704;SDS011;2877;48.238;11.160;2024-03-17T03:19:59;3.23;;;2.60;;
5704;SDS011;2877;48.238;11.160;2024-03-17T03:22:26;3.50;;;3.20;;
5704;SDS011;2877;48.238;11.160;2024-03-17T03:24:52;2.73;;;2.53;;
5704;SDS011;2877;48.238;11.160;2024-03-17T03:27:17;3.17;;;2.87;;
5704;SDS011;2877;48.238;11.160;2024-03-17T03:29:43;3.13;;;2.60;;
5704;SDS011;2877;48.238;11.160;2024-03-17T03:32:09;2.70;;;2.50;;
5704;SDS011;2877;48.238;11.160;2024-03-17T03:34:34;3.77;;;2.97;;
5704;SDS011;2877;48.238;11.160;2024-03-17T03:37:00;2.77;;;2.57;;
5704;SDS011;2877;48.238;11.160;2024-03-17T03:39:26;3.13;;;2.83;;
5704;SDS011;2877;48.238;11.160;2024-03-17T03:41:56;3.67;;;3.07;;
5704;SDS011;2877;48.238;11.160;2024-03-17T03:44:22;3.53;;;3.23;;
5704;SDS011;2877;48.238;11.160;2024-03-17T03:46:47;3.20;;;2.47;;
5704;SDS011;2877;48.238;11.160;2024-03-17T03:49:13;4.23;;;2.73;;
5704;SDS011;2877;48.238;11.160;2024-03-17T03:51:38;4.70;;;3.13;;
5704;SDS011;2877;48.238;11.160;2024-03-17T03:54:04;3.20;;;2.90;;
5704;SDS011;2877;48.238;11.160;2024-03-17T03:56:31;4.20;;;2.90;;
5704;SDS011;2877;48.238;11.160;2024-03-17T03:58:58;3.43;;;3.13;;
5704;SDS011;2877;48.238;11.160;2024-03-17T04:01:24;3.97;;;2.93;;
5704;SDS011;2877;48.238;11.160;2024-03-17T04:03:49;3.83;;;3.10;;
5704;SDS011;2877;48.238;11.160;2024-03-17T04:06:15;3.57;;;3.27;;
5704;SDS011;2877;48.238;11.160;2024-03-17T04:08:41;3.40;;;3.10;;
5704;SDS011;2877;48.238;11.160;2024-03-17T04:11:07;3.43;;;3.13;;
5704;SDS011;2877;48.238;11.160;2024-03-17T04:13:33;3.13;;;2.77;;
5704;SDS011;2877;48.238;11.160;2024-03-17T04:15:59;3.50;;;2.80;;
5704;SDS011;2877;48.238;11.160;2024-03-17T04:18:26;5.77;;;3.20;;
5704;SDS011;2877;48.238;11.160;2024-03-17T04:20:55;2.73;;;2.53;;
5704;SDS011;2877;48.238;11.160;2024-03-17T04:23:22;4.20;;;3.30;;
5704;SDS011;2877;48.238;11.160;2024-03-17T04:25:48;7.77;;;5.03;;
5704;SDS011;2877;48.238;11.160;2024-03-17T04:28:15;7.53;;;3.70;;
5704;SDS011;2877;48.238;11.160;2024-03-17T04:30:41;3.80;;;3.10;;
5704;SDS011;2877;48.238;11.160;2024-03-17T04:33:07;3.33;;;2.83;;
5704;SDS011;2877;48.238;11.160;2024-03-17T04:35:40;3.20;;;2.77;;
5704;SDS011;2877;48.238;11.160;2024-03-17T04:38:06;4.53;;;3.27;;
5704;SDS011;2877;48.238;11.160;2024-03-17T04:40:32;4.03;;;3.40;;
5704;SDS011;2877;48.238;11.160;2024-03-17T04:42:58;3.60;;;3.00;;
5704;SDS011;2877;48.238;11.160;2024-03-17T04:45:24;3.20;;;2.73;;
5704;SDS011;2877;48.238;11.160;2024-03-17T04:47:51;4.07;;;2.70;;
5704;SDS011;2877;48.238;11.160;2024-03-17T04:50:17;4.00;;;2.83;;
5704;SDS011;2877;48.238;11.160;2024-03-17T04:52:42;3.20;;;2.93;;
5704;SDS011;2877;48.238;11.160;2024-03-17T04:55:07;3.83;;;3.30;;
5704;SDS011;2877;48.238;11.160;2024-03-17T04:57:33;4.57;;;3.70;;
5704;SDS011;2877;48.238;11.160;2024-03-17T04:59:59;4.40;;;3.73;;
5704;SDS011;2877;48.238;11.160;2024-03-17T05:02:24;3.77;;;3.43;;
5704;SDS011;2877;48.238;11.160;2024-03-17T05:04:50;3.40;;;3.03;;
5704;SDS011;2877;48.238;11.160;2024-03-17T05:07:16;3.90;;;3.50;;
5704;SDS011;2877;48.238;11.160;2024-03-17T05:09:41;3.97;;;3.57;;
5704;SDS011;2877;48.238;11.160;2024-03-17T05:12:08;3.70;;;3.40;;
5704;SDS011;2877;48.238;11.160;2024-03-17T05:14:34;6.80;;;3.93;;
5704;SDS011;2877;48.238;11.160;2024-03-17T05:17:00;7.80;;;4.23;;
5704;SDS011;2877;48.238;11.160;2024-03-17T05:19:26;8.60;;;5.50;;
5704;SDS011;2877;48.238;11.160;2024-03-17T05:21:52;5.80;;;4.80;;
5704;SDS011;2877;48.238;11.160;2024-03-17T05:24:17;4.77;;;4.27;;
5704;SDS011;2877;48.238;11.160;2024-03-17T05:26:44;10.20;;;4.83;;
5704;SDS011;2877;48.238;11.160;2024-03-17T05:29:10;8.50;;;4.67;;
5704;SDS011;2877;48.238;11.160;2024-03-17T05:31:36;8.97;;;4.30;;
5704;SDS011;2877;48.238;11.160;2024-03-17T05:34:04;4.57;;;4.17;;
5704;SDS011;2877;48.238;11.160;2024-03-17T05:36:31;7.20;;;4.97;;
5704;SDS011;2877;48.238;11.160;2024-03-17T05:38:58;6.83;;;4.70;;
5704;SDS011;2877;48.238;11.160;2024-03-17T05:41:24;7.20;;;5.50;;
5704;SDS011;2877;48.238;11.160;2024-03-17T05:43:51;4.97;;;4.47;;
5704;SDS011;2877;48.238;11.160;2024-03-17T05:46:16;6.70;;;5.10;;
5704;SDS011;2877;48.238;11.160;2024-03-17T05:48:42;6.97;;;5.30;;
5704;SDS011;2877;48.238;11.160;2024-03-17T05:51:09;6.20;;;4.77;;
5704;SDS011;2877;48.238;11.160;2024-03-17T05:53:36;8.00;;;5.00;;
5704;SDS011;2877;48.238;11.160;2024-03-17T05:56:04;8.40;;;5.57;;
5704;SDS011;2877;48.238;11.160;2024-03-17T05:58:32;5.30;;;4.20;;
5704;SDS011;2877;48.238;11.160;2024-03-17T06:01:01;7.43;;;4.20;;
5704;SDS011;2877;48.238;11.160;2024-03-17T06:03:27;5.40;;;3.80;;
5704;SDS011;2877;48.238;11.160;2024-03-17T06:05:53;4.30;;;3.80;;
5704;SDS011;2877;48.238;11.160;2024-03-17T06:08:18;11.30;;;3.90;;
5704;SDS011;2877;48.238;11.160;2024-03-17T06:10:45;4.90;;;3.73;;
5704;SDS011;2877;48.238;11.160;2024-03-17T06:13:12;8.20;;;4.53;;
5704;SDS011;2877;48.238;11.160;2024-03-17T06:15:40;18.63;;;6.80;;
5704;SDS011;2877;48.238;11.160;2024-03-17T06:18:05;7.87;;;5.53;;
5704;SDS011;2877;48.238;11.160;2024-03-17T06:20:39;7.87;;;5.60;;
5704;SDS011;2877;48.238;11.160;2024-03-17T06:23:07;11.90;;;5.70;;
5704;SDS011;2877;48.238;11.160;2024-03-17T06:25:37;5.73;;;5.07;;
5704;SDS011;2877;48.238;11.160;2024-03-17T06:28:06;7.10;;;5.43;;
5704;SDS011;2877;48.238;11.160;2024-03-17T06:30:33;6.83;;;5.30;;
5704;SDS011;2877;48.238;11.160;2024-03-17T06:33:00;7.97;;;6.43;;
5704;SDS011;2877;48.238;11.160;2024-03-17T06:35:26;10.10;;;6.70;;
5704;SDS011;2877;48.238;11.160;2024-03-17T06:37:52;7.40;;;5.23;;
5704;SDS011;2877;48.238;11.160;2024-03-17T06:40:17;7.10;;;5.00;;
5704;SDS011;2877;48.238;11.160;2024-03-17T06:42:43;6.40;;;5.70;;
5704;SDS011;2877;48.238;11.160;2024-03-17T06:45:09;6.07;;;5.43;;
5704;SDS011;2877;48.238;11.160;2024-03-17T06:47:35;11.53;;;6.57;;
5704;SDS011;2877;48.238;11.160;2024-03-17T06:50:05;7.10;;;6.00;;
5704;SDS011;2877;48.238;11.160;2024-03-17T06:52:31;6.47;;;5.63;;
5704;SDS011;2877;48.238;11.160;2024-03-17T06:54:57;8.00;;;5.70;;
5704;SDS011;2877;48.238;11.160;2024-03-17T06:57:23;6.30;;;5.57;;
5704;SDS011;2877;48.238;11.160;2024-03-17T06:59:49;6.63;;;5.30;;
5704;SDS011;2877;48.238;11.160;2024-03-17T07:02:15;6.00;;;4.93;;
5704;SDS011;2877;48.238;11.160;2024-03-17T07:04:43;5.30;;;4.70;;
5704;SDS011;2877;48.238;11.160;2024-03-17T07:07:09;6.03;;;4.90;;
5704;SDS011;2877;48.238;11.160;2024-03-17T07:09:35;4.77;;;4.37;;
5704;SDS011;2877;48.238;11.160;2024-03-17T07:12:01;7.70;;;5.00;;
5704;SDS011;2877;48.238;11.160;2024-03-17T07:14:26;5.90;;;4.70;;
5704;SDS011;2877;48.238;11.160;2024-03-17T07:16:53;8.80;;;4.90;;
5704;SDS011;2877;48.238;11.160;2024-03-17T07:19:18;6.63;;;5.03;;
5704;SDS011;2877;48.238;11.160;2024-03-17T07:21:44;5.40;;;4.90;;
5704;SDS011;2877;48.238;11.160;2024-03-17T07:24:09;5.20;;;4.57;;
5704;SDS011;2877;48.238;11.160;2024-03-17T07:26:35;5.43;;;4.73;;
5704;SDS011;2877;48.238;11.160;2024-03-17T07:29:00;6.70;;;4.97;;
5704;SDS011;2877;48.238;11.160;2024-03-17T07:31:26;7.40;;;5.00;;
5704;SDS011;2877;48.238;11.160;2024-03-17T07:33:51;5.30;;;4.80;;
5704;SDS011;2877;48.238;11.160;2024-03-17T07:36:17;5.97;;;4.50;;
5704;SDS011;2877;48.238;11.160;2024-03-17T07:38:42;5.60;;;5.10;;
5704;SDS011;2877;48.238;11.160;2024-03-17T07:41:08;6.17;;;4.40;;
5704;SDS011;2877;48.238;11.160;2024-03-17T07:43:35;5.00;;;4.50;;
5704;SDS011;2877;48.238;11.160;2024-03-17T07:46:03;8.13;;;4.60;;
5704;SDS011;2877;48.238;11.160;2024-03-17T07:48:32;4.83;;;4.40;;
5704;SDS011;2877;48.238;11.160;2024-03-17T07:51:00;4.37;;;3.73;;
5704;SDS011;2877;48.238;11.160;2024-03-17T07:53:30;5.43;;;4.90;;
5704;SDS011;2877;48.238;11.160;2024-03-17T07:55:56;6.23;;;4.30;;
5704;SDS011;2877;48.238;11.160;2024-03-17T07:58:26;4.33;;;3.93;;
5704;SDS011;2877;48.238;11.160;2024-03-17T08:01:02;5.77;;;4.17;;
5704;SDS011;2877;48.238;11.160;2024-03-17T08:03:33;5.57;;;4.23;;
5704;SDS011;2877;48.238;11.160;2024-03-17T08:06:00;4.73;;;4.10;;
5704;SDS011;2877;48.238;11.160;2024-03-17T08:08:26;4.10;;;3.67;;
5704;SDS011;2877;48.238;11.160;2024-03-17T08:10:52;5.20;;;3.80;;
5704;SDS011;2877;48.238;11.160;2024-03-17T08:13:19;4.27;;;3.87;;
5704;SDS011;2877;48.238;11.160;2024-03-17T08:15:46;3.87;;;3.57;;
5704;SDS011;2877;48.238;11.160;2024-03-17T08:18:19;3.33;;;3.03;;
5704;SDS011;2877;48.238;11.160;2024-03-17T08:20:45;3.30;;;3.00;;
5704;SDS011;2877;48.238;11.160;2024-03-17T08:23:11;3.30;;;3.10;;
5704;SDS011;2877;48.238;11.160;2024-03-17T08:25:38;4.90;;;3.50;;
5704;SDS011;2877;48.238;11.160;2024-03-17T08:28:04;3.93;;;3.00;;
5704;SDS011;2877;48.238;11.160;2024-03-17T08:30:30;3.60;;;3.30;;
5704;SDS011;2877;48.238;11.160;2024-03-17T08:32:56;3.60;;;3.30;;
5704;SDS011;2877;48.238;11.160;2024-03-17T08:35:22;4.87;;;3.30;;
5704;SDS011;2877;48.238;11.160;2024-03-17T08:37:47;4.30;;;3.87;;
5704;SDS011;2877;48.238;11.160;2024-03-17T08:40:13;3.70;;;3.40;;
5704;SDS011;2877;48.238;11.160;2024-03-17T08:42:39;3.50;;;3.20;;
5704;SDS011;2877;48.238;11.160;2024-03-17T08:45:05;5.93;;;2.73;;
5704;SDS011;2877;48.238;11.160;2024-03-17T08:47:31;3.47;;;2.83;;
5704;SDS011;2877;48.238;11.160;2024-03-17T08:49:56;3.87;;;3.50;;
5704;SDS011;2877;48.238;11.160;2024-03-17T08:52:23;3.30;;;3.10;;
5704;SDS011;2877;48.238;11.160;2024-03-17T08:54:49;3.37;;;3.07;;
5704;SDS011;2877;48.238;11.160;2024-03-17T08:57:17;3.07;;;2.77;;
5704;SDS011;2877;48.238;11.160;2024-03-17T08:59:47;4.53;;;2.70;;
5704;SDS011;2877;48.238;11.160;2024-03-17T09:02:13;3.97;;;3.50;;
5704;SDS011;2877;48.238;11.160;2024-03-17T09:04:39;2.90;;;2.70;;
5704;SDS011;2877;48.238;11.160;2024-03-17T09:07:06;3.20;;;2.80;;
5704;SDS011;2877;48.238;11.160;2024-03-17T09:09:32;4.03;;;3.10;;
5704;SDS011;2877;48.238;11.160;2024-03-17T09:11:57;2.90;;;2.70;;
5704;SDS011;2877;48.238;11.160;2024-03-17T09:14:23;2.97;;;2.67;;
5704;SDS011;2877;48.238;11.160;2024-03-17T09:16:48;2.70;;;2.50;;
5704;SDS011;2877;48.238;11.160;2024-03-17T09:19:14;4.17;;;3.07;;
5704;SDS011;2877;48.238;11.160;2024-03-17T09:21:40;2.87;;;2.67;;
5704;SDS011;2877;48.238;11.160;2024-03-17T09:24:06;3.40;;;2.97;;
5704;SDS011;2877;48.238;11.160;2024-03-17T09:26:36;2.90;;;2.67;;
5704;SDS011;2877;48.238;11.160;2024-03-17T09:29:04;2.70;;;2.50;;
5704;SDS011;2877;48.238;11.160;2024-03-17T09:31:30;2.60;;;2.40;;
5704;SDS011;2877;48.238;11.160;2024-03-17T09:33:58;3.03;;;2.37;;
5704;SDS011;2877;48.238;11.160;2024-03-17T09:36:24;2.27;;;2.07;;
5704;SDS011;2877;48.238;11.160;2024-03-17T09:38:50;2.53;;;2.33;;
5704;SDS011;2877;48.238;11.160;2024-03-17T09:41:22;2.43;;;2.23;;
5704;SDS011;2877;48.238;11.160;2024-03-17T09:43:54;1.77;;;1.67;;
5704;SDS011;2877;48.238;11.160;2024-03-17T09:46:20;1.90;;;1.80;;
5704;SDS011;2877;48.238;11.160;2024-03-17T09:48:48;2.07;;;1.87;;
5704;SDS011;2877;48.238;11.160;2024-03-17T09:51:19;2.20;;;2.00;;
5704;SDS011;2877;48.238;11.160;2024-03-17T09:53:46;2.00;;;1.90;;
5704;SDS011;2877;48.238;11.160;2024-03-17T09:56:12;1.93;;;1.83;;
5704;SDS011;2877;48.238;11.160;2024-03-17T09:58:41;2.10;;;2.00;;
5704;SDS011;2877;48.238;11.160;2024-03-17T10:01:07;2.53;;;2.30;;
5704;SDS011;2877;48.238;11.160;2024-03-17T10:03:48;2.13;;;2.03;;
5704;SDS011;2877;48.238;11.160;2024-03-17T10:06:19;2.70;;;2.50;;
5704;SDS011;2877;48.238;11.160;2024-03-17T10:08:52;2.67;;;1.90;;
5704;SDS011;2877;48.238;11.160;2024-03-17T10:11:20;3.07;;;2.60;;
5704;SDS011;2877;48.238;11.160;2024-03-17T10:14:09;2.30;;;2.10;;
5704;SDS011;2877;48.238;11.160;2024-03-17T10:16:35;1.40;;;1.30;;
5704;SDS011;2877;48.238;11.160;2024-03-17T10:19:09;5.23;;;1.70;;
5704;SDS011;2877;48.238;11.160;2024-03-17T10:21:37;2.00;;;1.30;;
5704;SDS011;2877;48.238;11.160;2024-03-17T10:24:07;1.60;;;1.50;;
5704;SDS011;2877;48.238;11.160;2024-03-17T10:26:56;2.10;;;1.30;;
5704;SDS011;2877;48.238;11.160;2024-03-17T10:29:27;1.50;;;1.40;;
5704;SDS011;2877;48.238;11.160;2024-03-17T10:31:57;1.40;;;1.30;;
5704;SDS011;2877;48.238;11.160;2024-03-17T10:34:42;1.30;;;1.20;;
5704;SDS011;2877;48.238;11.160;2024-03-17T10:39:38;5.63;;;1.27;;
5704;SDS011;2877;48.238;11.160;2024-03-17T10:42:05;1.20;;;1.10;;
5704;SDS011;2877;48.238;11.160;2024-03-17T10:44:33;1.90;;;1.00;;
5704;SDS011;2877;48.238;11.160;2024-03-17T10:47:00;1.23;;;1.00;;
5704;SDS011;2877;48.238;11.160;2024-03-17T10:49:30;2.37;;;1.40;;
5704;SDS011;2877;48.238;11.160;2024-03-17T10:51:58;1.73;;;1.30;;
5704;SDS011;2877;48.238;11.160;2024-03-17T10:54:25;2.00;;;1.20;;
5704;SDS011;2877;48.238;11.160;2024-03-17T10:56:53;1.20;;;1.00;;
5704;SDS011;2877;48.238;11.160;2024-03-17T10:59:21;2.47;;;1.40;;
5704;SDS011;2877;48.238;11.160;2024-03-17T11:01:53;1.33;;;1.10;;
5704;SDS011;2877;48.238;11.160;2024-03-17T11:04:21;1.50;;;1.40;;
5704;SDS011;2877;48.238;11.160;2024-03-17T11:06:47;1.50;;;1.40;;
5704;SDS011;2877;48.238;11.160;2024-03-17T11:09:14;3.30;;;1.20;;
5704;SDS011;2877;48.238;11.160;2024-03-17T11:11:40;1.23;;;1.17;;
5704;SDS011;2877;48.238;11.160;2024-03-17T11:14:15;1.40;;;1.30;;
5704;SDS011;2877;48.238;11.160;2024-03-17T11:16:43;2.33;;;1.20;;
5704;SDS011;2877;48.238;11.160;2024-03-17T11:19:12;1.40;;;1.30;;
5704;SDS011;2877;48.238;11.160;2024-03-17T11:21:40;1.50;;;1.40;;
5704;SDS011;2877;48.238;11.160;2024-03-17T11:24:06;3.70;;;1.30;;
5704;SDS011;2877;48.238;11.160;2024-03-17T11:26:42;1.93;;;1.10;;
5704;SDS011;2877;48.238;11.160;2024-03-17T11:29:23;1.30;;;1.20;;
5704;SDS011;2877;48.238;11.160;2024-03-17T11:31:53;1.93;;;1.10;;
5704;SDS011;2877;48.238;11.160;2024-03-17T11:37:04;1.60;;;1.10;;
5704;SDS011;2877;48.238;11.160;2024-03-17T11:39:45;1.10;;;1.10;;
5704;SDS011;2877;48.238;11.160;2024-03-17T11:42:18;1.30;;;1.20;;
5704;SDS011;2877;48.238;11.160;2024-03-17T11:44:49;1.03;;;0.83;;
5704;SDS011;2877;48.238;11.160;2024-03-17T11:47:20;1.77;;;1.00;;
5704;SDS011;2877;48.238;11.160;2024-03-17T11:49:46;1.87;;;0.97;;
5704;SDS011;2877;48.238;11.160;2024-03-17T11:52:15;2.20;;;1.40;;
5704;SDS011;2877;48.238;11.160;2024-03-17T11:54:43;1.87;;;1.10;;
5704;SDS011;2877;48.238;11.160;2024-03-17T11:57:10;1.70;;;1.20;;
5704;SDS011;2877;48.238;11.160;2024-03-17T11:59:37;0.83;;;0.80;;
5704;SDS011;2877;48.238;11.160;2024-03-17T12:02:10;1.40;;;1.13;;
5704;SDS011;2877;48.238;11.160;2024-03-17T12:04:50;2.70;;;1.40;;
5704;SDS011;2877;48.238;11.160;2024-03-17T12:07:22;1.33;;;1.03;;
5704;SDS011;2877;48.238;11.160;2024-03-17T12:09:48;1.90;;;1.10;;
5704;SDS011;2877;48.238;11.160;2024-03-17T12:14:44;1.47;;;0.90;;
5704;SDS011;2877;48.238;11.160;2024-03-17T12:17:11;3.07;;;1.20;;
5704;SDS011;2877;48.238;11.160;2024-03-17T12:19:38;2.47;;;1.17;;
5704;SDS011;2877;48.238;11.160;2024-03-17T12:22:05;1.87;;;1.13;;
5704;SDS011;2877;48.238;11.160;2024-03-17T12:24:32;1.30;;;1.00;;
5704;SDS011;2877;48.238;11.160;2024-03-17T12:26:59;1.50;;;0.90;;
5704;SDS011;2877;48.238;11.160;2024-03-17T12:29:28;3.20;;;1.37;;
5704;SDS011;2877;48.238;11.160;2024-03-17T12:32:04;1.87;;;1.10;;
5704;SDS011;2877;48.238;11.160;2024-03-17T12:34:37;1.50;;;1.40;;
5704;SDS011;2877;48.238;11.160;2024-03-17T12:37:03;1.47;;;1.10;;
5704;SDS011;2877;48.238;11.160;2024-03-17T12:39:30;2.57;;;1.37;;
5704;SDS011;2877;48.238;11.160;2024-03-17T12:42:00;1.07;;;1.07;;
5704;SDS011;2877;48.238;11.160;2024-03-17T12:44:27;7.80;;;1.10;;
5704;SDS011;2877;48.238;11.160;2024-03-17T12:46:56;2.80;;;2.00;;
5704;SDS011;2877;48.238;11.160;2024-03-17T12:49:22;1.43;;;1.27;;
5704;SDS011;2877;48.238;11.160;2024-03-17T12:51:50;1.43;;;0.90;;
5704;SDS011;2877;48.238;11.160;2024-03-17T12:54:17;1.87;;;1.03;;
5704;SDS011;2877;48.238;11.160;2024-03-17T12:56:45;2.40;;;1.40;;
5704;SDS011;2877;48.238;11.160;2024-03-17T12:59:38;2.63;;;1.00;;
5704;SDS011;2877;48.238;11.160;2024-03-17T13:02:26;0.87;;;0.83;;
5704;SDS011;2877;48.238;11.160;2024-03-17T13:05:06;1.23;;;1.13;;
5704;SDS011;2877;48.238;11.160;2024-03-17T13:07:45;2.53;;;1.40;;
5704;SDS011;2877;48.238;11.160;2024-03-17T13:10:15;2.97;;;1.63;;
5704;SDS011;2877;48.238;11.160;2024-03-17T13:12:42;2.87;;;1.37;;
5704;SDS011;2877;48.238;11.160;2024-03-17T13:15:10;2.43;;;1.80;;
5704;SDS011;2877;48.238;11.160;2024-03-17T13:17:42;1.83;;;1.63;;
5704;SDS011;2877;48.238;11.160;2024-03-17T13:20:12;1.87;;;1.23;;
5704;SDS011;2877;48.238;11.160;2024-03-17T13:22:42;1.63;;;1.40;;
5704;SDS011;2877;48.238;11.160;2024-03-17T13:27:41;1.57;;;1.47;;
5704;SDS011;2877;48.238;11.160;2024-03-17T13:30:08;1.60;;;1.43;;
5704;SDS011;2877;48.238;11.160;2024-03-17T13:32:34;3.83;;;1.40;;
5704;SDS011;2877;48.238;11.160;2024-03-17T13:35:00;2.03;;;1.30;;
5704;SDS011;2877;48.238;11.160;2024-03-17T13:37:26;1.83;;;1.30;;
5704;SDS011;2877;48.238;11.160;2024-03-17T13:39:52;2.77;;;1.30;;
5704;SDS011;2877;48.238;11.160;2024-03-17T13:42:17;1.60;;;1.50;;
5704;SDS011;2877;48.238;11.160;2024-03-17T13:44:43;2.80;;;1.07;;
5704;SDS011;2877;48.238;11.160;2024-03-17T13:47:08;2.30;;;1.70;;
5704;SDS011;2877;48.238;11.160;2024-03-17T13:49:34;1.53;;;1.37;;
5704;SDS011;2877;48.238;11.160;2024-03-17T13:51:59;1.73;;;1.10;;
5704;SDS011;2877;48.238;11.160;2024-03-17T13:54:25;1.80;;;1.53;;
5704;SDS011;2877;48.238;11.160;2024-03-17T13:56:51;3.60;;;1.47;;
5704;SDS011;2877;48.238;11.160;2024-03-17T13:59:16;3.07;;;1.20;;
5704;SDS011;2877;48.238;11.160;2024-03-17T14:01:43;2.90;;;1.00;;
5704;SDS011;2877;48.238;11.160;2024-03-17T14:04:15;2.80;;;1.30;;
5704;SDS011;2877;48.238;11.160;2024-03-17T14:06:43;2.20;;;1.00;;
5704;SDS011;2877;48.238;11.160;2024-03-17T14:09:10;2.70;;;1.50;;
5704;SDS011;2877;48.238;11.160;2024-03-17T14:11:37;2.50;;;1.40;;
5704;SDS011;2877;48.238;11.160;2024-03-17T14:14:03;1.67;;;0.93;;
5704;SDS011;2877;48.238;11.160;2024-03-17T14:16:30;4.13;;;2.23;;
5704;SDS011;2877;48.238;11.160;2024-03-17T14:18:59;2.83;;;1.00;;
5704;SDS011;2877;48.238;11.160;2024-03-17T14:21:25;5.27;;;2.30;;
5704;SDS011;2877;48.238;11.160;2024-03-17T14:23:51;4.97;;;1.40;;
5704;SDS011;2877;48.238;11.160;2024-03-17T14:26:17;4.30;;;1.57;;
5704;SDS011;2877;48.238;11.160;2024-03-17T14:28:43;8.03;;;3.20;;
5704;SDS011;2877;48.238;11.160;2024-03-17T14:31:08;7.07;;;2.37;;
5704;SDS011;2877;48.238;11.160;2024-03-17T14:33:34;12.73;;;3.13;;
5704;SDS011;2877;48.238;11.160;2024-03-17T14:36:00;2.57;;;1.53;;
5704;SDS011;2877;48.238;11.160;2024-03-17T14:38:25;2.10;;;1.20;;
5704;SDS011;2877;48.238;11.160;2024-03-17T14:40:51;6.30;;;2.50;;
5704;SDS011;2877;48.238;11.160;2024-03-17T14:43:18;3.20;;;1.40;;
5704;SDS011;2877;48.238;11.160;2024-03-17T14:45:44;1.93;;;1.43;;
5704;SDS011;2877;48.238;11.160;2024-03-17T14:48:10;3.70;;;1.20;;
5704;SDS011;2877;48.238;11.160;2024-03-17T14:50:36;7.27;;;2.73;;
5704;SDS011;2877;48.238;11.160;2024-03-17T14:53:02;4.83;;;2.17;;
5704;SDS011;2877;48.238;11.160;2024-03-17T14:55:27;4.77;;;1.53;;
5704;SDS011;2877;48.238;11.160;2024-03-17T14:57:53;1.93;;;1.40;;
5704;SDS011;2877;48.238;11.160;2024-03-17T15:00:19;2.83;;;1.50;;
5704;SDS011;2877;48.238;11.160;2024-03-17T15:02:45;3.20;;;1.60;;
5704;SDS011;2877;48.238;11.160;2024-03-17T15:05:12;2.80;;;1.33;;
5704;SDS011;2877;48.238;11.160;2024-03-17T15:07:39;3.13;;;1.87;;
5704;SDS011;2877;48.238;11.160;2024-03-17T15:10:05;4.00;;;1.83;;
5704;SDS011;2877;48.238;11.160;2024-03-17T15:12:32;1.60;;;1.20;;